Time;durP1;ratioP1;P1;durP2;ratioP2;P2;SDS_P1;SDS_P2;PMS_P1;PMS_P2;Temp;Humidity;BMP_temperature;BMP_pressure;BME280_temperature;BME280_humidity;BME280_pressure;Samples;Min_cycle;Max_cycle;Signal;HPM_P1;HPM_P2
2021/07/20 00:01:14;;;;;;;;;;;563.70;2432.00;;;;;;5096681;28;20001;-73
2021/07/20 00:03:41;;;;;;;;;;;563.70;2432.00;;;;;;5096599;28;20020;-74
2021/07/20 00:06:06;;;;;;;;;;;563.70;2432.00;;;;;;5096641;28;19904;-74
2021/07/20 00:08:32;;;;;;;;;;;563.70;2432.00;;;;;;5096473;28;19908;-74
2021/07/20 00:11:00;;;;;;;;;;;563.60;2432.00;;;;;;5096386;28;19951;-74
2021/07/20 00:13:25;;;;;;;;;;;563.70;2432.00;;;;;;5096503;28;19904;-74
2021/07/20 00:15:54;;;;;;;;;;;563.60;2432.00;;;;;;5096251;28;20263;-74
2021/07/20 00:18:28;;;;;;;;;;;563.60;2432.00;;;;;;5096503;28;20308;-77
2021/07/20 00:20:54;;;;;;;;;;;563.60;2432.00;;;;;;5096315;28;19943;-78
2021/07/20 00:23:20;;;;;;;;;;;563.70;2432.00;;;;;;5096258;28;20361;-79
2021/07/20 00:25:48;;;;;;;;;;;563.70;2432.00;;;;;;5096292;28;20366;-79
2021/07/20 00:28:14;;;;;;;;;;;563.70;2432.00;;;;;;5096227;28;19904;-74
2021/07/20 00:30:40;;;;;;;;;;;563.70;2432.00;;;;;;5095995;28;19928;-74
2021/07/20 00:33:05;;;;;;;;;;;563.70;2432.00;;;;;;5096222;28;19904;-73
2021/07/20 00:35:31;;;;;;;;;;;563.70;2432.00;;;;;;5096113;28;20354;-74
2021/07/20 00:37:57;;;;;;;;;;;563.70;2432.00;;;;;;5095797;28;19911;-73
2021/07/20 00:40:23;;;;;;;;;;;563.70;2432.00;;;;;;5095984;28;19927;-73
2021/07/20 00:42:48;;;;;;;;;;;563.70;2432.00;;;;;;5095694;28;19915;-72
2021/07/20 00:45:15;;;;;;;;;;;563.70;2432.00;;;;;;5095673;28;19908;-73
2021/07/20 00:47:41;;;;;;;;;;;563.70;2432.00;;;;;;5095931;28;19904;-73
2021/07/20 00:50:08;;;;;;;;;;;563.70;2432.00;;;;;;5096045;28;19994;-74
2021/07/20 00:52:33;;;;;;;;;;;563.70;2432.00;;;;;;5095883;28;20303;-73
2021/07/20 00:54:59;;;;;;;;;;;563.60;2432.00;;;;;;5095968;28;19943;-73
2021/07/20 00:57:25;;;;;;;;;;;563.60;2432.00;;;;;;5095377;28;19908;-73
2021/07/20 00:59:53;;;;;;;;;;;563.60;2432.00;;;;;;5095502;28;19950;-74
2021/07/20 01:02:18;;;;;;;;;;;563.50;2432.00;;;;;;5095322;28;19904;-73
2021/07/20 01:04:44;;;;;;;;;;;563.50;2432.00;;;;;;5095423;28;20412;-72
2021/07/20 01:07:10;;;;;;;;;;;563.50;2432.00;;;;;;5095359;28;19911;-74
2021/07/20 01:09:35;;;;;;;;;;;563.50;2432.00;;;;;;5095198;28;19960;-73
2021/07/20 01:12:01;;;;;;;;;;;563.50;2432.00;;;;;;5095585;28;19904;-73
2021/07/20 01:14:27;;;;;;;;;;;563.50;2432.00;;;;;;5095128;28;19987;-73
2021/07/20 01:16:55;;;;;;;;;;;563.50;2432.00;;;;;;5095222;28;20069;-73
2021/07/20 01:19:22;;;;;;;;;;;563.50;2432.00;;;;;;5095012;28;19904;-74
2021/07/20 01:21:51;;;;;;;;;;;563.30;2432.00;;;;;;5095164;28;19912;-74
2021/07/20 01:24:18;;;;;;;;;;;563.40;2432.00;;;;;;5094941;28;19908;-74
2021/07/20 01:26:45;;;;;;;;;;;563.40;2432.00;;;;;;5095087;28;19904;-74
2021/07/20 01:29:11;;;;;;;;;;;563.30;2432.00;;;;;;5094854;28;19916;-73
2021/07/20 01:31:38;;;;;;;;;;;563.40;2432.00;;;;;;5094739;28;19904;-73
2021/07/20 01:34:05;;;;;;;;;;;563.40;2432.00;;;;;;5094817;28;19903;-73
2021/07/20 01:36:32;;;;;;;;;;;563.30;2432.00;;;;;;5094731;28;20304;-73
2021/07/20 01:38:59;;;;;;;;;;;563.40;2432.00;;;;;;5094770;28;19908;-73
2021/07/20 01:41:25;;;;;;;;;;;563.40;2432.00;;;;;;5094944;28;19904;-73
2021/07/20 01:44:03;;;;;;;;;;;563.40;2432.00;;;;;;5094482;28;19961;-73
2021/07/20 01:46:33;;;;;;;;;;;563.30;2432.00;;;;;;5094674;28;19912;-73
2021/07/20 01:49:03;;;;;;;;;;;563.30;2432.00;;;;;;5094486;28;19907;-73
2021/07/20 01:51:29;;;;;;;;;;;563.40;2432.00;;;;;;5094465;28;19937;-73
2021/07/20 01:53:56;;;;;;;;;;;563.40;2432.00;;;;;;5094436;28;19904;-75
2021/07/20 01:56:22;;;;;;;;;;;563.40;2432.00;;;;;;5094484;28;19904;-76
2021/07/20 01:58:48;;;;;;;;;;;563.40;2432.00;;;;;;5094172;28;19908;-76
2021/07/20 02:01:19;;;;;;;;;;;563.40;2432.00;;;;;;5093842;28;20320;-74
2021/07/20 02:08:59;;;;;;;;;;;563.50;2432.00;;;;;;5079823;28;20365;-82
2021/07/20 02:11:29;;;;;;;;;;;563.50;2432.00;;;;;;5090683;28;20285;-79
2021/07/20 02:14:02;;;;;;;;;;;563.50;2432.00;;;;;;5079090;28;19905;-79
2021/07/20 02:16:29;;;;;;;;;;;563.60;2432.00;;;;;;5087975;28;19908;-79
2021/07/20 02:19:02;;;;;;;;;;;563.60;2432.00;;;;;;5073806;28;19987;-79
2021/07/20 02:21:29;;;;;;;;;;;563.60;2432.00;;;;;;5074108;28;19908;-79
2021/07/20 02:23:55;;;;;;;;;;;563.50;2432.00;;;;;;5079287;28;19915;-77
2021/07/20 02:26:21;;;;;;;;;;;563.50;2432.00;;;;;;5081925;28;19904;-79
2021/07/20 02:28:48;;;;;;;;;;;563.50;2432.00;;;;;;5073357;28;19905;-79
2021/07/20 02:31:14;;;;;;;;;;;563.50;2432.00;;;;;;5073697;28;19986;-77
2021/07/20 02:33:41;;;;;;;;;;;563.50;2432.00;;;;;;5073357;28;19911;-79
2021/07/20 02:36:07;;;;;;;;;;;563.30;2432.00;;;;;;5073536;28;19973;-81
2021/07/20 02:38:33;;;;;;;;;;;563.40;2432.00;;;;;;5073388;28;20377;-81
2021/07/20 02:40:59;;;;;;;;;;;563.40;2432.00;;;;;;5078932;28;19904;-78
2021/07/20 02:43:26;;;;;;;;;;;563.40;2432.00;;;;;;5081696;28;19918;-73
2021/07/20 02:45:52;;;;;;;;;;;563.40;2432.00;;;;;;5073197;28;20355;-76
2021/07/20 02:48:19;;;;;;;;;;;563.40;2432.00;;;;;;5073360;28;19908;-81
2021/07/20 02:50:45;;;;;;;;;;;563.50;2432.00;;;;;;5073212;28;19912;-84
2021/07/20 02:53:11;;;;;;;;;;;563.40;2432.00;;;;;;5055436;28;19905;-86
2021/07/20 02:55:37;;;;;;;;;;;563.40;2432.00;;;;;;5055178;28;19951;-84
2021/07/20 02:58:03;;;;;;;;;;;563.40;2432.00;;;;;;5073223;28;19940;-84
2021/07/20 03:00:28;;;;;;;;;;;563.50;2432.00;;;;;;5073189;28;19999;-84
2021/07/20 03:02:54;;;;;;;;;;;563.40;2432.00;;;;;;5073069;28;19908;-85
2021/07/20 03:05:20;;;;;;;;;;;563.40;2432.00;;;;;;5073026;28;19995;-85
2021/07/20 03:07:56;;;;;;;;;;;563.40;2432.00;;;;;;5072995;28;19950;-85
2021/07/20 03:10:23;;;;;;;;;;;563.50;2432.00;;;;;;5055053;28;20004;-85
2021/07/20 03:12:49;;;;;;;;;;;563.40;2432.00;;;;;;5072332;28;19904;-85
2021/07/20 03:15:15;;;;;;;;;;;563.40;2432.00;;;;;;5079392;28;19960;-84
2021/07/20 03:17:41;;;;;;;;;;;563.50;2432.00;;;;;;5080065;28;19904;-84
2021/07/20 03:20:09;;;;;;;;;;;563.30;2432.00;;;;;;5072960;28;19959;-83
2021/07/20 03:22:35;;;;;;;;;;;563.40;2432.00;;;;;;5072825;28;20275;-78
2021/07/20 03:25:03;;;;;;;;;;;563.40;2432.00;;;;;;5072755;28;19905;-78
2021/07/20 03:27:31;;;;;;;;;;;563.40;2432.00;;;;;;5072865;28;20373;-78
2021/07/20 03:29:57;;;;;;;;;;;563.40;2432.00;;;;;;5072648;28;19917;-78
2021/07/20 03:32:24;;;;;;;;;;;563.40;2432.00;;;;;;5072832;28;19904;-74
2021/07/20 03:34:50;;;;;;;;;;;563.40;2432.00;;;;;;5072973;28;19915;-73
2021/07/20 03:37:16;;;;;;;;;;;563.40;2432.00;;;;;;5072777;28;19911;-77
2021/07/20 03:39:42;;;;;;;;;;;563.50;2432.00;;;;;;5072764;28;19909;-75
2021/07/20 03:42:08;;;;;;;;;;;563.50;2432.00;;;;;;5072468;28;20017;-74
2021/07/20 03:44:35;;;;;;;;;;;563.50;2432.00;;;;;;5072584;28;19909;-74
2021/07/20 03:47:01;;;;;;;;;;;563.60;2432.00;;;;;;5072760;28;20273;-74
2021/07/20 03:49:27;;;;;;;;;;;563.60;2432.00;;;;;;5072550;28;20421;-74
2021/07/20 03:51:58;;;;;;;;;;;563.60;2432.00;;;;;;5072797;28;19908;-74
2021/07/20 03:54:25;;;;;;;;;;;563.60;2432.00;;;;;;5072879;28;20323;-74
2021/07/20 03:56:51;;;;;;;;;;;563.60;2432.00;;;;;;5072475;28;20281;-74
2021/07/20 03:59:18;;;;;;;;;;;563.60;2432.00;;;;;;5072360;28;19954;-75
2021/07/20 04:01:46;;;;;;;;;;;563.60;2432.00;;;;;;5072580;28;19916;-75
2021/07/20 04:04:14;;;;;;;;;;;563.60;2432.00;;;;;;5072200;28;19908;-74
2021/07/20 04:06:40;;;;;;;;;;;563.60;2432.00;;;;;;5072754;28;20301;-75
2021/07/20 04:09:06;;;;;;;;;;;563.60;2432.00;;;;;;5072317;28;19950;-75
2021/07/20 04:11:33;;;;;;;;;;;563.60;2432.00;;;;;;5072472;28;19905;-74
2021/07/20 04:13:59;;;;;;;;;;;563.60;2432.00;;;;;;5072261;28;19904;-77
2021/07/20 04:16:25;;;;;;;;;;;563.60;2432.00;;;;;;5072257;28;19911;-80
2021/07/20 04:18:51;;;;;;;;;;;563.60;2432.00;;;;;;5072280;28;19905;-79
2021/07/20 04:21:17;;;;;;;;;;;563.60;2432.00;;;;;;5054308;28;20289;-80
2021/07/20 04:23:44;;;;;;;;;;;563.70;2432.00;;;;;;5072358;28;19970;-77
2021/07/20 04:26:12;;;;;;;;;;;563.70;2432.00;;;;;;5075115;28;19996;-82
2021/07/20 04:28:38;;;;;;;;;;;563.70;2432.00;;;;;;5057505;28;19912;-79
2021/07/20 04:31:05;;;;;;;;;;;563.70;2432.00;;;;;;5075918;28;19908;-78
2021/07/20 04:33:32;;;;;;;;;;;563.70;2432.00;;;;;;5075631;28;19991;-82
2021/07/20 04:35:59;;;;;;;;;;;563.70;2432.00;;;;;;5057958;28;20293;-83
2021/07/20 04:38:25;;;;;;;;;;;563.70;2432.00;;;;;;5075824;28;20014;-83
2021/07/20 04:40:51;;;;;;;;;;;563.80;2432.00;;;;;;5075617;28;20323;-86
2021/07/20 04:43:17;;;;;;;;;;;563.80;2432.00;;;;;;5057819;28;19912;-85
2021/07/20 04:45:45;;;;;;;;;;;563.80;2432.00;;;;;;5057644;28;19940;-84
2021/07/20 04:48:14;;;;;;;;;;;563.80;2432.00;;;;;;5075558;28;20316;-84
2021/07/20 04:50:40;;;;;;;;;;;563.80;2432.00;;;;;;5057440;28;20316;-78
2021/07/20 04:53:08;;;;;;;;;;;563.80;2432.00;;;;;;5075479;28;19905;-84
2021/07/20 04:55:35;;;;;;;;;;;563.80;2432.00;;;;;;5075324;28;19911;-85
2021/07/20 04:58:02;;;;;;;;;;;563.80;2432.00;;;;;;5075397;28;19905;-84
2021/07/20 05:00:27;;;;;;;;;;;563.80;2432.00;;;;;;5057003;28;19913;-84
2021/07/20 05:02:56;;;;;;;;;;;563.80;2432.00;;;;;;5075321;28;19905;-83
2021/07/20 05:05:22;;;;;;;;;;;563.80;2432.00;;;;;;5057385;28;19908;-82
2021/07/20 05:07:48;;;;;;;;;;;563.90;2432.00;;;;;;5075174;28;19931;-82
2021/07/20 05:10:14;;;;;;;;;;;563.90;2432.00;;;;;;5075216;28;19995;-81
2021/07/20 05:12:40;;;;;;;;;;;563.80;2432.00;;;;;;5056888;28;20342;-76
2021/07/20 05:15:06;;;;;;;;;;;563.90;2432.00;;;;;;5080992;28;19911;-82
2021/07/20 05:17:33;;;;;;;;;;;563.90;2432.00;;;;;;5083543;28;19908;-84
2021/07/20 05:20:00;;;;;;;;;;;563.80;2432.00;;;;;;5074802;28;19958;-79
2021/07/20 05:22:26;;;;;;;;;;;563.80;2432.00;;;;;;5075019;28;19905;-80
2021/07/20 05:24:52;;;;;;;;;;;563.80;2432.00;;;;;;5074660;28;19916;-79
2021/07/20 05:27:18;;;;;;;;;;;563.80;2432.00;;;;;;5074840;28;19908;-78
2021/07/20 05:29:46;;;;;;;;;;;563.80;2432.00;;;;;;5074746;28;19920;-77
2021/07/20 05:32:16;;;;;;;;;;;563.80;2432.00;;;;;;5074683;28;19953;-80
2021/07/20 05:34:42;;;;;;;;;;;563.80;2432.00;;;;;;5074548;28;19905;-85
2021/07/20 05:37:09;;;;;;;;;;;563.80;2432.00;;;;;;5073568;28;20059;-77
2021/07/20 05:39:36;;;;;;;;;;;563.80;2432.00;;;;;;5074703;28;19927;-84
2021/07/20 05:42:04;;;;;;;;;;;563.80;2432.00;;;;;;5074365;28;20363;-85
2021/07/20 05:44:30;;;;;;;;;;;563.90;2432.00;;;;;;5074457;28;19908;-86
2021/07/20 05:46:56;;;;;;;;;;;563.80;2432.00;;;;;;5074301;28;19912;-86
2021/07/20 05:49:22;;;;;;;;;;;563.80;2432.00;;;;;;5074395;28;19911;-85
2021/07/20 05:51:48;;;;;;;;;;;563.80;2432.00;;;;;;5074586;28;19908;-84
2021/07/20 05:54:14;;;;;;;;;;;563.80;2432.00;;;;;;5076057;28;19958;-84
2021/07/20 05:56:41;;;;;;;;;;;563.80;2432.00;;;;;;5064547;28;20377;-85
2021/07/20 05:59:07;;;;;;;;;;;563.70;2432.00;;;;;;5074022;28;19961;-86
2021/07/20 06:01:33;;;;;;;;;;;563.70;2432.00;;;;;;5074189;28;19904;-86
2021/07/20 06:03:59;;;;;;;;;;;563.60;2432.00;;;;;;5070015;28;20295;-85
2021/07/20 06:06:28;;;;;;;;;;;563.60;2432.00;;;;;;5074415;28;20278;-76
2021/07/20 06:08:59;;;;;;;;;;;563.60;2432.00;;;;;;5074041;28;19904;-84
2021/07/20 06:11:25;;;;;;;;;;;563.60;2432.00;;;;;;5073940;28;20422;-83
2021/07/20 06:13:52;;;;;;;;;;;563.60;2432.00;;;;;;5074216;28;19908;-75
2021/07/20 06:16:20;;;;;;;;;;;563.60;2432.00;;;;;;5088095;28;19911;-80
2021/07/20 06:18:45;;;;;;;;;;;563.60;2432.00;;;;;;5073903;28;20309;-85
2021/07/20 06:21:12;;;;;;;;;;;563.50;2432.00;;;;;;5073772;28;19904;-85
2021/07/20 06:23:42;;;;;;;;;;;563.50;2432.00;;;;;;5055692;28;19919;-86
2021/07/20 06:26:08;;;;;;;;;;;563.40;2432.00;;;;;;5073617;28;19928;-86
2021/07/20 06:28:35;;;;;;;;;;;563.50;2432.00;;;;;;5073253;28;19905;-86
2021/07/20 06:31:01;;;;;;;;;;;563.50;2432.00;;;;;;5055671;28;19912;-86
2021/07/20 06:33:27;;;;;;;;;;;563.50;2432.00;;;;;;5073364;28;19904;-86
2021/07/20 06:35:53;;;;;;;;;;;563.50;2432.00;;;;;;5073492;28;19908;-86
2021/07/20 06:38:20;;;;;;;;;;;563.60;2432.00;;;;;;5073290;28;19957;-86
2021/07/20 06:40:50;;;;;;;;;;;563.60;2432.00;;;;;;5073494;28;19904;-86
2021/07/20 06:43:16;;;;;;;;;;;563.60;2432.00;;;;;;5073464;28;19912;-84
2021/07/20 06:45:44;;;;;;;;;;;563.60;2432.00;;;;;;5073279;28;19908;-75
2021/07/20 06:48:11;;;;;;;;;;;563.60;2432.00;;;;;;5073163;28;19908;-84
2021/07/20 06:50:37;;;;;;;;;;;563.60;2432.00;;;;;;5073375;28;19915;-84
2021/07/20 06:53:03;;;;;;;;;;;563.60;2432.00;;;;;;5073313;28;19908;-84
2021/07/20 06:55:29;;;;;;;;;;;563.60;2432.00;;;;;;5073186;28;19912;-85
2021/07/20 06:57:55;;;;;;;;;;;563.70;2432.00;;;;;;5054976;28;19927;-86
2021/07/20 07:00:21;;;;;;;;;;;563.70;2432.00;;;;;;5073069;28;20351;-80
2021/07/20 07:02:51;;;;;;;;;;;563.80;2432.00;;;;;;5073143;28;19904;-76
2021/07/20 07:05:17;;;;;;;;;;;563.80;2432.00;;;;;;5073119;28;19905;-84
2021/07/20 07:07:45;;;;;;;;;;;563.80;2432.00;;;;;;5073077;28;20354;-85
2021/07/20 07:10:12;;;;;;;;;;;563.80;2432.00;;;;;;5054918;28;19904;-84
2021/07/20 07:12:38;;;;;;;;;;;563.90;2432.00;;;;;;5073004;28;19908;-84
2021/07/20 07:15:05;;;;;;;;;;;563.90;2432.00;;;;;;5078362;28;19904;-84
2021/07/20 07:17:31;;;;;;;;;;;564.00;2432.00;;;;;;5081231;28;20252;-75
2021/07/20 07:19:57;;;;;;;;;;;564.00;2432.00;;;;;;5072754;28;19904;-81
2021/07/20 07:22:23;;;;;;;;;;;564.10;2432.00;;;;;;5073131;28;19954;-84
2021/07/20 07:24:53;;;;;;;;;;;564.10;2432.00;;;;;;5054762;28;19940;-85
2021/07/20 07:27:19;;;;;;;;;;;564.10;2432.00;;;;;;5072933;28;20065;-84
2021/07/20 07:29:45;;;;;;;;;;;588.80;2432.00;;;;;;5054790;28;19924;-84
2021/07/20 07:32:10;;;;;;;;;;;564.10;2432.00;;;;;;5072995;28;19905;-75
2021/07/20 07:34:36;;;;;;;;;;;564.10;2432.00;;;;;;5072999;28;19913;-79
2021/07/20 07:37:03;;;;;;;;;;;564.10;2432.00;;;;;;5072945;28;19905;-83
2021/07/20 07:39:30;;;;;;;;;;;564.10;2432.00;;;;;;5055139;28;19904;-85
2021/07/20 07:41:57;;;;;;;;;;;564.10;2432.00;;;;;;5054940;28;19904;-85
2021/07/20 07:44:23;;;;;;;;;;;564.10;2432.00;;;;;;5072850;28;19995;-80
2021/07/20 07:46:49;;;;;;;;;;;588.80;2432.00;;;;;;5072974;28;19924;-84
2021/07/20 07:49:15;;;;;;;;;;;588.90;2432.00;;;;;;5054940;28;19948;-84
2021/07/20 07:51:42;;;;;;;;;;;589.00;2432.00;;;;;;5055142;28;20419;-75
2021/07/20 07:54:08;;;;;;;;;;;589.10;2432.00;;;;;;5072724;28;20018;-82
2021/07/20 07:56:34;;;;;;;;;;;589.30;2432.00;;;;;;5055056;28;19911;-79
2021/07/20 07:59:00;;;;;;;;;;;589.60;2432.00;;;;;;5072755;28;19912;-80
2021/07/20 08:01:30;;;;;;;;;;;589.70;2432.00;;;;;;5076755;28;19904;-76
2021/07/20 08:03:56;;;;;;;;;;;614.40;2432.00;;;;;;5076696;28;20278;-76
2021/07/20 08:06:25;;;;;;;;;;;614.80;2432.00;;;;;;5076710;28;19998;-78
2021/07/20 08:08:58;;;;;;;;;;;615.20;2432.00;;;;;;5076904;28;19909;-81
2021/07/20 08:11:24;;;;;;;;;;;640.10;2432.00;;;;;;5076732;28;19948;-77
2021/07/20 08:13:51;;;;;;;;;;;640.60;2432.00;;;;;;5058592;28;19951;-81
2021/07/20 08:16:18;;;;;;;;;;;665.70;2432.00;;;;;;5090417;28;19904;-81
2021/07/20 08:18:44;;;;;;;;;;;665.90;2432.00;;;;;;5076262;28;20309;-85
2021/07/20 08:21:11;;;;;;;;;;;666.00;2432.00;;;;;;5058495;28;19905;-85
2021/07/20 08:23:37;;;;;;;;;;;666.20;2432.00;;;;;;5075936;28;19919;-76
2021/07/20 08:26:13;;;;;;;;;;;666.50;2432.00;;;;;;5076413;28;19950;-79
2021/07/20 08:28:45;;;;;;;;;;;666.30;2432.00;;;;;;5075804;28;19911;-82
2021/07/20 08:31:12;;;;;;;;;;;666.20;2432.00;;;;;;5076193;28;19915;-84
2021/07/20 08:33:38;;;;;;;;;;;666.40;2432.00;;;;;;5075992;28;19911;-82
2021/07/20 08:36:04;;;;;;;;;;;691.30;2432.00;;;;;;5058199;28;20282;-82
2021/07/20 08:38:30;;;;;;;;;;;691.40;2432.00;;;;;;5075900;28;19911;-82
2021/07/20 08:40:59;;;;;;;;;;;691.30;2432.00;;;;;;5066295;28;19908;-83
2021/07/20 08:43:30;;;;;;;;;;;691.20;2432.00;;;;;;5081288;28;19908;-83
2021/07/20 08:46:14;;;;;;;;;;;666.30;2432.00;;;;;;5058254;28;19908;-85
2021/07/20 08:48:46;;;;;;;;;;;666.00;2432.00;;;;;;5057584;28;19904;-85
2021/07/20 08:51:13;;;;;;;;;;;665.90;2432.00;;;;;;5075795;28;19904;-85
2021/07/20 08:53:41;;;;;;;;;;;665.60;2432.00;;;;;;5075408;28;19904;-78
2021/07/20 08:56:07;;;;;;;;;;;640.90;2432.00;;;;;;5075884;28;19908;-83
2021/07/20 08:58:34;;;;;;;;;;;640.80;2432.00;;;;;;5075833;28;19970;-82
2021/07/20 09:01:02;;;;;;;;;;;640.50;2432.00;;;;;;5075516;28;20285;-82
2021/07/20 09:03:32;;;;;;;;;;;640.70;2432.00;;;;;;5075518;28;19918;-83
2021/07/20 09:06:04;;;;;;;;;;;640.90;2432.00;;;;;;5075375;28;19934;-83
2021/07/20 09:08:30;;;;;;;;;;;665.60;2432.00;;;;;;5075439;28;20390;-76
2021/07/20 09:11:19;;;;;;;;;;;665.60;2432.00;;;;;;5074937;28;19904;-73
2021/07/20 09:14:03;;;;;;;;;;;665.60;2432.00;;;;;;5075199;28;19908;-74
2021/07/20 09:16:32;;;;;;;;;;;666.00;2432.00;;;;;;5089340;28;19919;-78
2021/07/20 09:19:23;;;;;;;;;;;665.90;2432.00;;;;;;5075244;28;19908;-84
2021/07/20 09:21:50;;;;;;;;;;;665.80;2432.00;;;;;;5074951;28;19908;-85
2021/07/20 09:24:18;;;;;;;;;;;665.60;2432.00;;;;;;5075097;28;20290;-84
2021/07/20 09:26:47;;;;;;;;;;;665.60;2432.00;;;;;;5075157;28;19904;-85
2021/07/20 09:29:15;;;;;;;;;;;640.90;2432.00;;;;;;5056862;28;19916;-85
2021/07/20 09:31:47;;;;;;;;;;;640.70;2432.00;;;;;;5074920;28;20007;-83
2021/07/20 09:34:20;;;;;;;;;;;640.60;2432.00;;;;;;5075066;28;19995;-83
2021/07/20 09:37:10;;;;;;;;;;;640.50;2432.00;;;;;;5056952;28;19995;-85
2021/07/20 09:39:35;;;;;;;;;;;640.50;2432.00;;;;;;5074859;28;20370;-85
2021/07/20 09:42:13;;;;;;;;;;;640.50;2432.00;;;;;;5074555;28;19908;-85
2021/07/20 09:44:50;;;;;;;;;;;640.40;2432.00;;;;;;5074708;28;20388;-84
2021/07/20 09:47:30;;;;;;;;;;;640.40;2432.00;;;;;;5074404;28;19927;-84
2021/07/20 09:49:58;;;;;;;;;;;640.40;2432.00;;;;;;5074703;28;20007;-84
2021/07/20 09:52:24;;;;;;;;;;;640.20;2432.00;;;;;;5074499;28;19904;-84
2021/07/20 09:54:50;;;;;;;;;;;640.10;2432.00;;;;;;5074511;28;19984;-84
2021/07/20 09:57:24;;;;;;;;;;;615.30;2432.00;;;;;;5056354;28;20321;-83
2021/07/20 09:59:57;;;;;;;;;;;615.20;2432.00;;;;;;5074281;28;19904;-82
2021/07/20 10:02:26;;;;;;;;;;;615.10;2432.00;;;;;;5074266;28;19912;-77
2021/07/20 10:05:00;;;;;;;;;;;615.00;2432.00;;;;;;5084749;28;19912;-81
2021/07/20 10:08:03;;;;;;;;;;;614.90;2432.00;;;;;;5075645;28;19991;-83
2021/07/20 10:10:41;;;;;;;;;;;614.80;2432.00;;;;;;5008097;28;20411;-75
2021/07/20 10:13:20;;;;;;;;;;;614.80;2432.00;;;;;;5080044;28;20324;-84
2021/07/20 10:16:05;;;;;;;;;;;614.80;2432.00;;;;;;5090254;28;20010;-85
2021/07/20 10:18:35;;;;;;;;;;;614.60;2432.00;;;;;;5074250;28;19950;-84
2021/07/20 10:21:02;;;;;;;;;;;614.70;2432.00;;;;;;5074019;28;19911;-84
2021/07/20 10:23:31;;;;;;;;;;;614.70;2432.00;;;;;;5073185;28;19953;-81
2021/07/20 10:26:09;;;;;;;;;;;614.70;2432.00;;;;;;5073834;28;19908;-81
2021/07/20 10:28:47;;;;;;;;;;;614.70;2432.00;;;;;;5071051;28;20353;-74
2021/07/20 10:31:15;;;;;;;;;;;614.70;2432.00;;;;;;5086470;28;19912;-83
2021/07/20 10:33:47;;;;;;;;;;;614.70;2432.00;;;;;;5075285;28;19954;-79
2021/07/20 10:36:20;;;;;;;;;;;614.70;2432.00;;;;;;5073978;28;20000;-85
2021/07/20 10:38:51;;;;;;;;;;;614.70;2432.00;;;;;;5074360;28;19904;-86
2021/07/20 10:41:21;;;;;;;;;;;614.80;2432.00;;;;;;5074048;28;20370;-85
2021/07/20 10:43:57;;;;;;;;;;;615.10;2432.00;;;;;;5074033;28;20457;-76
2021/07/20 10:46:25;;;;;;;;;;;615.20;2432.00;;;;;;5073733;28;19911;-80
2021/07/20 10:48:56;;;;;;;;;;;640.00;2432.00;;;;;;5074258;28;19914;-78
2021/07/20 10:51:25;;;;;;;;;;;640.10;2432.00;;;;;;5073849;28;19909;-82
2021/07/20 10:54:11;;;;;;;;;;;640.20;2432.00;;;;;;5076867;28;20425;-85
2021/07/20 10:56:42;;;;;;;;;;;640.40;2432.00;;;;;;5081050;28;19905;-85
2021/07/20 10:59:10;;;;;;;;;;;640.50;2432.00;;;;;;5056168;28;19908;-82
2021/07/20 11:01:44;;;;;;;;;;;640.60;2432.00;;;;;;5073987;28;19958;-83
2021/07/20 11:04:28;;;;;;;;;;;640.80;2432.00;;;;;;5074089;28;19908;-83
2021/07/20 11:06:54;;;;;;;;;;;665.60;2432.00;;;;;;5076240;28;20024;-79
2021/07/20 11:09:20;;;;;;;;;;;665.60;2432.00;;;;;;5075266;28;20428;-80
2021/07/20 11:11:48;;;;;;;;;;;665.60;2432.00;;;;;;5073684;28;19904;-84
2021/07/20 11:14:14;;;;;;;;;;;665.60;2432.00;;;;;;5074153;28;19904;-85
2021/07/20 11:16:40;;;;;;;;;;;665.70;2432.00;;;;;;5091005;28;19929;-74
2021/07/20 11:19:07;;;;;;;;;;;665.80;2432.00;;;;;;5093459;28;19908;-84
2021/07/20 11:21:33;;;;;;;;;;;665.80;2432.00;;;;;;5089572;28;19908;-85
2021/07/20 11:23:59;;;;;;;;;;;666.00;2432.00;;;;;;5083930;28;19919;-79
2021/07/20 11:26:26;;;;;;;;;;;666.10;2432.00;;;;;;5089642;28;19912;-78
2021/07/20 11:28:52;;;;;;;;;;;666.20;2432.00;;;;;;5092322;28;19924;-82
2021/07/20 11:31:31;;;;;;;;;;;666.20;2432.00;;;;;;5088646;28;20383;-84
2021/07/20 11:34:02;;;;;;;;;;;666.20;2432.00;;;;;;5073444;28;19908;-85
2021/07/20 11:36:39;;;;;;;;;;;666.30;2432.00;;;;;;5068918;28;19911;-85
2021/07/20 11:39:06;;;;;;;;;;;666.40;2432.00;;;;;;5081830;28;20396;-85
2021/07/20 11:41:39;;;;;;;;;;;666.50;2432.00;;;;;;5094625;28;19914;-84
2021/07/20 11:44:16;;;;;;;;;;;666.50;2432.00;;;;;;5094608;28;19962;-85
2021/07/20 11:46:56;;;;;;;;;;;691.20;2432.00;;;;;;5078770;28;20285;-86
2021/07/20 11:49:31;;;;;;;;;;;666.50;2432.00;;;;;;5092970;28;20004;-84
2021/07/20 11:52:09;;;;;;;;;;;691.20;2432.00;;;;;;5093246;28;19908;-85
2021/07/20 11:54:40;;;;;;;;;;;691.30;2432.00;;;;;;5093656;28;19904;-84
2021/07/20 11:57:25;;;;;;;;;;;691.30;2432.00;;;;;;5092304;28;19908;-83
2021/07/20 12:00:05;;;;;;;;;;;691.30;2432.00;;;;;;5086402;28;19904;-74
2021/07/20 12:02:49;;;;;;;;;;;691.30;2432.00;;;;;;5090831;28;19954;-83
2021/07/20 12:05:27;;;;;;;;;;;691.30;2432.00;;;;;;5094000;28;20370;-82
2021/07/20 12:08:19;;;;;;;;;;;691.30;2432.00;;;;;;5091595;28;19972;-74
2021/07/20 12:10:45;;;;;;;;;;;691.20;2432.00;;;;;;5087978;28;19904;-79
2021/07/20 12:13:13;;;;;;;;;;;691.20;2432.00;;;;;;5092525;28;19910;-79
2021/07/20 12:15:39;;;;;;;;;;;691.20;2432.00;;;;;;5083124;28;19904;-79
2021/07/20 12:18:05;;;;;;;;;;;691.20;2432.00;;;;;;5058193;28;19999;-84
2021/07/20 12:20:31;;;;;;;;;;;691.30;2432.00;;;;;;5076297;28;20290;-82
2021/07/20 12:22:58;;;;;;;;;;;691.30;2432.00;;;;;;5075691;28;19944;-85
2021/07/20 12:25:24;;;;;;;;;;;691.30;2432.00;;;;;;5076036;28;19927;-85
2021/07/20 12:27:51;;;;;;;;;;;691.30;2432.00;;;;;;5075667;28;19909;-74
2021/07/20 12:30:18;;;;;;;;;;;691.30;2432.00;;;;;;5075542;28;19920;-83
2021/07/20 12:32:45;;;;;;;;;;;691.30;2432.00;;;;;;5075959;28;19904;-78
2021/07/20 12:35:11;;;;;;;;;;;691.20;2432.00;;;;;;5075814;28;19916;-75
2021/07/20 12:37:39;;;;;;;;;;;691.20;2432.00;;;;;;5081063;28;19940;-75
2021/07/20 12:40:05;;;;;;;;;;;691.30;2432.00;;;;;;5095458;28;19936;-83
2021/07/20 12:42:32;;;;;;;;;;;691.30;2432.00;;;;;;5102181;28;19969;-83
2021/07/20 12:45:05;;;;;;;;;;;691.30;2432.00;;;;;;5103504;28;19939;-85
2021/07/20 12:47:38;;;;;;;;;;;691.30;2432.00;;;;;;5094698;28;20406;-84
2021/07/20 12:50:04;;;;;;;;;;;691.30;2432.00;;;;;;5095271;28;19912;-84
2021/07/20 12:52:32;;;;;;;;;;;691.20;2432.00;;;;;;5095043;28;19951;-83
2021/07/20 12:54:58;;;;;;;;;;;691.20;2432.00;;;;;;5093397;28;19904;-83
2021/07/20 12:57:24;;;;;;;;;;;691.20;2432.00;;;;;;5090443;28;19998;-75
2021/07/20 12:59:50;;;;;;;;;;;691.20;2432.00;;;;;;5093054;28;20000;-79
2021/07/20 13:02:17;;;;;;;;;;;691.20;2432.00;;;;;;5091406;28;19904;-78
2021/07/20 13:04:43;;;;;;;;;;;691.20;2432.00;;;;;;5092682;28;19915;-84
2021/07/20 13:07:09;;;;;;;;;;;691.20;2432.00;;;;;;5063251;28;19912;-85
2021/07/20 13:09:36;;;;;;;;;;;691.20;2432.00;;;;;;5090626;28;19908;-84
2021/07/20 13:12:01;;;;;;;;;;;691.20;2432.00;;;;;;5074899;28;20293;-83
2021/07/20 13:14:30;;;;;;;;;;;666.50;2432.00;;;;;;5092359;28;19904;-82
2021/07/20 13:16:58;;;;;;;;;;;691.20;2432.00;;;;;;5057249;28;19987;-75
2021/07/20 13:19:24;;;;;;;;;;;691.20;2432.00;;;;;;5075158;28;20362;-80
2021/07/20 13:21:49;;;;;;;;;;;691.20;2432.00;;;;;;5091596;28;19957;-74
2021/07/20 13:24:15;;;;;;;;;;;691.20;2432.00;;;;;;5092626;28;19947;-78
2021/07/20 13:26:41;;;;;;;;;;;691.30;2432.00;;;;;;5090311;28;19904;-85
2021/07/20 13:29:09;;;;;;;;;;;691.30;2432.00;;;;;;5092108;28;19966;-84
2021/07/20 13:31:42;;;;;;;;;;;691.30;2432.00;;;;;;5091222;28;19915;-74
2021/07/20 13:34:10;;;;;;;;;;;691.30;2432.00;;;;;;5092267;28;19954;-79
2021/07/20 13:36:37;;;;;;;;;;;691.30;2432.00;;;;;;5091828;28;19908;-75
2021/07/20 13:39:05;;;;;;;;;;;691.30;2432.00;;;;;;5090590;28;20385;-79
2021/07/20 13:41:30;;;;;;;;;;;691.30;2432.00;;;;;;5092295;28;19974;-83
2021/07/20 13:43:56;;;;;;;;;;;691.30;2432.00;;;;;;5089450;28;19913;-75
2021/07/20 13:46:23;;;;;;;;;;;691.30;2432.00;;;;;;5092289;28;19904;-75
2021/07/20 13:48:50;;;;;;;;;;;691.40;2432.00;;;;;;5089641;28;20426;-83
2021/07/20 13:51:19;;;;;;;;;;;691.40;2432.00;;;;;;5092238;28;19910;-84
2021/07/20 13:53:47;;;;;;;;;;;691.40;2432.00;;;;;;5090394;28;20416;-83